Burnsville, West Virginia
Current Conditions -  °F | °C
As of 11:35 AM on Saturday 22 Nov 2014 (Local Time) from KW22 Reporting Station
Overcast Overcast  
Wind Chill: 44°   Ceiling: 3600
Heat Index: 48°   Visibility: 10mi
Dew Point: 21°   Wind: 9mph
Humidity: 34%   Direction: 200°SSW
Pressure: 30.31"   Gusts: NA
Location:  38.86°N, 80.65°W
Report Text: KW22 221635Z AUTO 20008KT 10SM BKN036 OVC041 09/M06 A3031 RMK AO2
Loading
Personal Weather Stations






























Interactive Weather Map New forecast layout! Learn more

10-Day Weather Forecast

Advertisements
Track Severe Weather on mobile